createdAt,value
2023-04-27T00:00:45.727Z,42.51
2023-04-27T00:01:45.726Z,42.34
2023-04-27T00:02:45.866Z,42.03
2023-04-27T00:03:45.855Z,42.57
2023-04-27T00:04:45.826Z,42.06
2023-04-27T00:05:45.728Z,42.13
2023-04-27T00:06:45.755Z,41.87
2023-04-27T00:07:45.697Z,42.35
2023-04-27T00:08:45.680Z,41.14
2023-04-27T00:09:45.704Z,41.21
2023-04-27T00:10:45.708Z,40.64
2023-04-27T00:11:45.676Z,41.59
2023-04-27T00:12:45.700Z,40.62
2023-04-27T00:13:45.721Z,40.70
2023-04-27T00:14:45.718Z,40.41
2023-04-27T00:15:45.737Z,39.96
2023-04-27T00:16:45.765Z,40.44
2023-04-27T00:17:45.753Z,40.55
2023-04-27T00:18:45.706Z,39.67
2023-04-27T00:19:45.774Z,40.16
2023-04-27T00:20:45.690Z,40.56
2023-04-27T00:21:45.709Z,40.18
2023-04-27T00:22:45.725Z,39.43
2023-04-27T00:23:45.752Z,38.76
2023-04-27T00:24:45.764Z,39.60
2023-04-27T00:25:45.731Z,38.71
2023-04-27T00:26:45.808Z,39.24
2023-04-27T00:27:45.704Z,39.48
2023-04-27T00:28:45.754Z,38.81
2023-04-27T00:29:45.706Z,39.23
2023-04-27T00:30:45.780Z,39.07
2023-04-27T00:31:45.810Z,38.86
2023-04-27T00:32:45.825Z,38.82
2023-04-27T00:33:45.716Z,37.90
2023-04-27T00:34:45.918Z,38.09
2023-04-27T00:35:45.754Z,38.63
2023-04-27T00:36:45.722Z,38.91
2023-04-27T00:37:45.750Z,38.81
2023-04-27T00:38:45.718Z,37.77
2023-04-27T00:39:45.759Z,37.70
2023-04-27T00:40:45.762Z,37.42
2023-04-27T00:41:45.741Z,36.73
2023-04-27T00:42:45.764Z,37.02
2023-04-27T00:43:45.796Z,37.27
2023-04-27T00:44:45.777Z,36.68
2023-04-27T00:45:45.786Z,37.09
2023-04-27T00:46:45.721Z,36.91
2023-04-27T00:47:45.821Z,36.70
2023-04-27T00:48:45.737Z,37.00
2023-04-27T00:49:45.727Z,37.23
2023-04-27T00:50:45.738Z,37.12
2023-04-27T00:51:45.711Z,36.08
2023-04-27T00:52:45.757Z,36.40
2023-04-27T00:53:45.720Z,36.59
2023-04-27T00:54:45.749Z,36.55
2023-04-27T00:55:45.712Z,36.58
2023-04-27T00:56:45.785Z,36.20
2023-04-27T00:57:45.726Z,36.37
2023-04-27T00:58:45.720Z,36.34
2023-04-27T00:59:45.755Z,35.35
2023-04-27T01:00:45.754Z,34.36
2023-04-27T01:01:45.789Z,35.70
2023-04-27T01:02:45.875Z,34.86
2023-04-27T01:03:45.918Z,35.60
2023-04-27T01:04:45.728Z,34.61
2023-04-27T01:05:45.717Z,35.07
2023-04-27T01:06:45.726Z,35.14
2023-04-27T01:07:45.717Z,34.70
2023-04-27T01:08:45.783Z,34.55
2023-04-27T01:09:45.764Z,34.20
2023-04-27T01:10:45.697Z,34.26
2023-04-27T01:11:45.701Z,34.20
2023-04-27T01:12:45.773Z,34.13
2023-04-27T01:13:45.707Z,33.64
2023-04-27T01:14:45.919Z,33.55
2023-04-27T01:15:45.734Z,33.17
2023-04-27T01:16:45.791Z,33.89
2023-04-27T01:17:45.767Z,34.15
2023-04-27T01:18:45.704Z,33.90
2023-04-27T01:19:45.747Z,33.48
2023-04-27T01:20:45.713Z,33.42
2023-04-27T01:21:45.704Z,33.60
2023-04-27T01:22:45.714Z,32.89
2023-04-27T01:23:45.713Z,32.80
2023-04-27T01:24:45.779Z,32.43
2023-04-27T01:25:45.739Z,32.89
2023-04-27T01:26:45.704Z,33.07
2023-04-27T01:27:45.720Z,32.06
2023-04-27T01:28:45.744Z,32.34
2023-04-27T01:29:45.787Z,32.09
2023-04-27T01:30:45.736Z,32.08
2023-04-27T01:31:45.818Z,32.19
2023-04-27T01:32:45.818Z,32.06
2023-04-27T01:33:45.736Z,31.36
2023-04-27T01:34:45.704Z,31.55
2023-04-27T01:35:45.720Z,31.95
2023-04-27T01:36:45.811Z,32.50
2023-04-27T01:37:45.780Z,31.53
2023-04-27T01:38:45.727Z,31.67
2023-04-27T01:39:45.750Z,31.26
2023-04-27T01:40:45.728Z,32.09
2023-04-27T01:41:45.749Z,31.25
2023-04-27T01:42:45.754Z,31.12
2023-04-27T01:43:45.743Z,30.69
2023-04-27T01:44:45.792Z,30.80
2023-04-27T01:45:45.760Z,30.90
2023-04-27T01:46:45.811Z,31.45
2023-04-27T01:47:45.776Z,30.72
2023-04-27T01:48:45.751Z,31.24
2023-04-27T01:49:45.785Z,30.72
2023-04-27T01:50:45.754Z,30.68
2023-04-27T01:51:45.748Z,30.32
2023-04-27T01:52:45.769Z,29.89
2023-04-27T01:53:45.761Z,30.09
2023-04-27T01:54:45.784Z,30.09
2023-04-27T01:55:45.725Z,30.28
2023-04-27T01:56:45.740Z,30.30
2023-04-27T01:57:45.731Z,29.68
2023-04-27T01:58:45.723Z,29.05
2023-04-27T01:59:45.716Z,29.79
2023-04-27T02:00:45.740Z,29.63
2023-04-27T02:01:45.779Z,29.02
2023-04-27T02:02:45.817Z,29.54
2023-04-27T02:03:45.885Z,29.42
2023-04-27T02:04:45.826Z,29.26
2023-04-27T02:05:45.734Z,28.83
2023-04-27T02:06:45.749Z,29.63
2023-04-27T02:07:45.736Z,28.69
2023-04-27T02:08:45.733Z,28.73
2023-04-27T02:09:45.729Z,28.60
2023-04-27T02:10:45.738Z,28.88
2023-04-27T02:11:45.790Z,28.64
2023-04-27T02:12:45.732Z,28.43
2023-04-27T02:13:45.746Z,28.03
2023-04-27T02:14:45.775Z,28.50
2023-04-27T02:15:45.768Z,27.67
2023-04-27T02:16:45.749Z,28.38
2023-04-27T02:17:45.818Z,27.86
2023-04-27T02:18:45.737Z,28.16
2023-04-27T02:19:45.738Z,28.23
2023-04-27T02:20:45.753Z,28.10
2023-04-27T02:21:45.713Z,27.72
2023-04-27T02:22:45.777Z,27.91
2023-04-27T02:23:45.743Z,27.46
2023-04-27T02:24:45.750Z,28.03
2023-04-27T02:25:45.746Z,27.86
2023-04-27T02:27:45.712Z,27.16
2023-04-27T02:28:45.741Z,27.37
2023-04-27T02:29:45.767Z,27.30
2023-04-27T02:30:45.722Z,27.22
2023-04-27T02:31:45.773Z,26.92
2023-04-27T02:32:45.788Z,27.12
2023-04-27T02:33:45.706Z,27.15
2023-04-27T02:34:45.749Z,26.93
2023-04-27T02:35:45.719Z,26.74
2023-04-27T02:36:45.743Z,26.87
2023-04-27T02:37:45.760Z,27.25
2023-04-27T02:38:45.728Z,27.14
2023-04-27T02:39:45.731Z,26.68
2023-04-27T02:40:45.703Z,26.54
2023-04-27T02:41:45.727Z,26.81
2023-04-27T02:42:45.697Z,26.89
2023-04-27T02:43:45.707Z,26.93
2023-04-27T02:44:45.732Z,26.05
2023-04-27T02:45:45.703Z,25.93
2023-04-27T02:46:45.780Z,25.72
2023-04-27T02:47:45.730Z,25.59
2023-04-27T02:48:45.658Z,25.31
2023-04-27T02:49:45.679Z,25.54
2023-04-27T02:50:45.673Z,26.08
2023-04-27T02:51:45.659Z,25.80
2023-04-27T02:52:45.681Z,25.05
2023-04-27T02:53:45.693Z,25.26
2023-04-27T02:54:45.670Z,25.12
2023-04-27T02:55:45.684Z,25.07
2023-04-27T02:56:45.683Z,25.05
2023-04-27T02:57:45.716Z,24.85
2023-04-27T02:58:45.679Z,25.19
2023-04-27T02:59:45.687Z,24.92
2023-04-27T03:00:45.795Z,24.38
2023-04-27T03:01:45.774Z,24.92
2023-04-27T03:02:45.841Z,24.51
2023-04-27T03:03:45.765Z,24.70
2023-04-27T03:04:45.845Z,24.71
2023-04-27T03:05:45.660Z,24.65
2023-04-27T03:06:45.670Z,24.22
2023-04-27T03:07:46.034Z,24.15
2023-04-27T03:08:45.688Z,24.64
2023-04-27T03:09:45.636Z,24.49
2023-04-27T03:10:45.642Z,24.02
2023-04-27T03:11:45.680Z,23.97
2023-04-27T03:12:45.633Z,24.10
2023-04-27T03:13:45.639Z,24.11
2023-04-27T03:14:45.684Z,23.48
2023-04-27T03:15:45.644Z,24.00
2023-04-27T03:16:45.695Z,23.60
2023-04-27T03:17:45.689Z,23.76
2023-04-27T03:18:45.648Z,23.26
2023-04-27T03:19:45.664Z,23.62
2023-04-27T03:20:45.677Z,23.73
2023-04-27T03:21:45.646Z,23.37
2023-04-27T03:22:45.652Z,23.11
2023-04-27T03:23:45.624Z,23.01
2023-04-27T03:24:45.645Z,23.19
2023-04-27T03:25:45.637Z,23.71
2023-04-27T03:26:45.617Z,23.29
2023-04-27T03:27:45.662Z,23.00
2023-04-27T03:28:45.625Z,23.21
2023-04-27T03:29:45.620Z,22.89
2023-04-27T03:30:45.594Z,22.77
2023-04-27T03:31:45.685Z,22.81
2023-04-27T03:32:47.574Z,22.74
2023-04-27T03:33:45.615Z,22.73
2023-04-27T03:34:45.636Z,22.86
2023-04-27T03:35:45.618Z,22.54
2023-04-27T03:36:45.620Z,22.56
2023-04-27T03:37:45.588Z,22.58
2023-04-27T03:38:45.613Z,22.72
2023-04-27T03:39:45.680Z,22.49
2023-04-27T03:40:45.644Z,22.37
2023-04-27T03:41:45.620Z,22.26
2023-04-27T03:42:45.588Z,22.11
2023-04-27T03:43:45.579Z,22.31
2023-04-27T03:44:45.623Z,21.66
2023-04-27T03:45:45.608Z,22.01
2023-04-27T03:46:45.574Z,22.54
2023-04-27T03:47:46.036Z,21.73
2023-04-27T03:48:45.593Z,21.77
2023-04-27T03:49:45.613Z,22.32
2023-04-27T03:50:45.626Z,21.55
2023-04-27T03:51:45.578Z,21.84
2023-04-27T03:52:45.586Z,22.11
2023-04-27T03:53:45.575Z,21.52
2023-04-27T03:54:45.596Z,21.47
2023-04-27T03:55:45.652Z,21.29
2023-04-27T03:56:45.561Z,21.62
2023-04-27T03:57:45.612Z,21.20
2023-04-27T03:58:45.554Z,21.23
2023-04-27T03:59:45.592Z,20.91
2023-04-27T04:00:45.620Z,21.10
2023-04-27T04:01:45.596Z,20.67
2023-04-27T04:02:45.667Z,21.18
2023-04-27T04:03:45.669Z,21.03
2023-04-27T04:04:45.659Z,20.89
2023-04-27T04:05:45.603Z,20.99
2023-04-27T04:06:45.564Z,20.47
2023-04-27T04:07:45.543Z,20.94
2023-04-27T04:08:45.561Z,20.66
2023-04-27T04:09:45.555Z,20.80
2023-04-27T04:10:46.414Z,20.37
2023-04-27T04:11:45.562Z,20.67
2023-04-27T04:12:45.549Z,20.32
2023-04-27T04:13:45.542Z,20.55
2023-04-27T04:14:45.519Z,20.15
2023-04-27T04:15:45.564Z,20.03
2023-04-27T04:16:45.523Z,20.21
2023-04-27T04:17:45.549Z,19.92
2023-04-27T04:18:45.586Z,20.41
2023-04-27T04:19:45.524Z,20.28
2023-04-27T04:20:45.932Z,20.38
2023-04-27T04:21:45.525Z,20.01
2023-04-27T04:22:45.543Z,20.05
2023-04-27T04:23:45.527Z,19.89
2023-04-27T04:24:45.539Z,20.16
2023-04-27T04:25:45.534Z,19.95
2023-04-27T04:26:45.539Z,19.76
2023-04-27T04:27:46.427Z,19.76
2023-04-27T04:28:45.508Z,19.40
2023-04-27T04:29:45.521Z,19.63
2023-04-27T04:30:45.536Z,19.53
2023-04-27T04:31:45.580Z,19.22
2023-04-27T04:32:45.589Z,19.69
2023-04-27T04:33:45.509Z,19.45
2023-04-27T04:34:45.481Z,19.24
2023-04-27T04:35:45.503Z,19.15
2023-04-27T04:36:45.493Z,18.91
2023-04-27T04:37:45.531Z,18.79
2023-04-27T04:38:45.482Z,18.97
2023-04-27T04:39:45.517Z,19.41
2023-04-27T04:40:46.126Z,18.95
2023-04-27T04:41:45.512Z,18.91
2023-04-27T04:42:45.520Z,18.62
2023-04-27T04:43:45.464Z,19.05
2023-04-27T04:44:45.510Z,18.66
2023-04-27T04:45:45.480Z,18.85
2023-04-27T04:46:45.488Z,18.29
2023-04-27T04:47:45.531Z,18.87
2023-04-27T04:48:45.464Z,18.64
2023-04-27T04:49:45.505Z,18.59
2023-04-27T04:50:45.954Z,18.55
2023-04-27T04:51:45.470Z,18.33
2023-04-27T04:52:45.470Z,18.63
2023-04-27T04:53:45.457Z,18.44
2023-04-27T04:54:45.444Z,18.35
2023-04-27T04:55:45.463Z,18.49
2023-04-27T04:56:45.464Z,17.81
2023-04-27T04:57:45.505Z,17.88
2023-04-27T04:58:45.442Z,18.25
2023-04-27T04:59:45.448Z,18.10
2023-04-27T05:00:45.433Z,17.87
2023-04-27T05:01:45.485Z,18.07
2023-04-27T05:02:45.511Z,17.79
2023-04-27T05:03:45.545Z,18.23
2023-04-27T05:04:45.561Z,17.84
2023-04-27T05:05:45.445Z,17.84
2023-04-27T05:06:45.441Z,17.57
2023-04-27T05:07:45.470Z,17.65
2023-04-27T05:08:45.450Z,17.73
2023-04-27T05:09:45.459Z,17.88
2023-04-27T05:10:45.991Z,17.37
2023-04-27T05:11:45.441Z,17.55
2023-04-27T05:12:45.435Z,17.38
2023-04-27T05:13:45.490Z,17.67
2023-04-27T05:14:45.429Z,17.23
2023-04-27T05:15:45.471Z,17.67
2023-04-27T05:16:45.424Z,17.24
2023-04-27T05:17:45.501Z,17.41
2023-04-27T05:18:45.457Z,17.04
2023-04-27T05:19:45.436Z,17.34
2023-04-27T05:20:45.462Z,17.36
2023-04-27T05:21:45.477Z,16.90
2023-04-27T05:22:45.449Z,17.30
2023-04-27T05:23:45.500Z,16.78
2023-04-27T05:24:45.468Z,16.89
2023-04-27T05:25:45.445Z,17.05
2023-04-27T05:26:45.482Z,16.70
2023-04-27T05:27:45.544Z,16.90
2023-04-27T05:28:45.435Z,16.58
2023-04-27T05:29:45.553Z,16.96
2023-04-27T05:30:45.446Z,16.90
2023-04-27T05:31:45.543Z,16.92
2023-04-27T05:32:45.469Z,16.77
2023-04-27T05:33:45.455Z,16.46
2023-04-27T05:34:47.337Z,16.65
2023-04-27T05:35:45.404Z,17.68
2023-04-27T05:36:45.406Z,17.35
2023-04-27T05:37:45.421Z,17.34
2023-04-27T05:38:45.401Z,17.00
2023-04-27T05:39:45.381Z,17.03
2023-04-27T05:40:45.493Z,17.26
2023-04-27T05:41:45.424Z,17.54
2023-04-27T05:42:45.674Z,17.90
2023-04-27T05:43:45.351Z,18.18
2023-04-27T05:44:45.359Z,18.16
2023-04-27T05:45:45.364Z,19.29
2023-04-27T05:46:45.354Z,20.36
2023-04-27T05:47:45.355Z,21.09
2023-04-27T05:48:45.375Z,22.23
2023-04-27T05:49:45.357Z,25.92
2023-04-27T05:50:45.340Z,27.32
2023-04-27T05:51:45.305Z,38.78
2023-04-27T05:52:47.005Z,42.81
2023-04-27T05:53:45.321Z,32.98
2023-04-27T05:54:45.275Z,26.17
2023-04-27T05:55:45.269Z,17.59
2023-04-27T05:56:45.376Z,14.43
2023-04-27T05:57:47.701Z,11.44
2023-04-27T05:58:45.275Z,11.34
2023-04-27T05:59:45.346Z,10.63
2023-04-27T06:00:45.248Z,9.38
2023-04-27T06:01:45.266Z,9.30
2023-04-27T06:02:45.400Z,8.80
2023-04-27T06:03:45.581Z,8.96
2023-04-27T06:04:45.276Z,9.56
2023-04-27T06:05:45.282Z,9.46
2023-04-27T06:06:45.202Z,9.44
2023-04-27T06:07:45.206Z,8.91
2023-04-27T06:08:45.219Z,8.89
2023-04-27T06:09:45.179Z,8.69
2023-04-27T06:10:45.249Z,8.84
2023-04-27T06:11:45.159Z,8.63
2023-04-27T06:12:46.393Z,8.25
2023-04-27T06:13:45.148Z,8.46
2023-04-27T06:14:45.142Z,8.68
2023-04-27T06:15:45.238Z,8.43
2023-04-27T06:16:45.195Z,8.67
2023-04-27T06:17:45.154Z,8.57
2023-04-27T06:18:45.138Z,8.53
2023-04-27T06:19:45.181Z,9.58
2023-04-27T06:20:45.547Z,10.21
2023-04-27T06:21:45.134Z,10.46
2023-04-27T06:22:45.103Z,10.84
2023-04-27T06:23:45.100Z,11.43
2023-04-27T06:24:45.102Z,12.38
2023-04-27T06:25:45.163Z,12.80
2023-04-27T06:26:45.082Z,13.66
2023-04-27T06:27:45.096Z,14.66
2023-04-27T06:28:45.075Z,15.52
2023-04-27T06:29:45.059Z,15.73
2023-04-27T06:30:45.054Z,16.55
2023-04-27T06:31:45.118Z,17.74
2023-04-27T06:32:45.107Z,18.59
2023-04-27T06:33:45.054Z,19.15
2023-04-27T06:34:45.088Z,19.74
2023-04-27T06:35:47.054Z,19.90
2023-04-27T06:36:45.246Z,20.62
2023-04-27T06:37:45.498Z,21.95
2023-04-27T06:38:45.139Z,21.27
2023-04-27T06:39:46.743Z,19.73
2023-04-27T06:40:45.221Z,20.18
2023-04-27T06:41:45.231Z,19.90
2023-04-27T06:42:45.536Z,20.25
2023-04-27T06:43:45.271Z,20.42
2023-04-27T06:44:45.295Z,21.35
2023-04-27T06:45:45.300Z,22.21
2023-04-27T06:46:45.310Z,22.71
2023-04-27T06:47:45.346Z,23.12
2023-04-27T06:48:45.311Z,23.40
2023-04-27T06:49:45.309Z,23.71
2023-04-27T06:50:45.490Z,23.91
2023-04-27T06:51:45.349Z,24.03
2023-04-27T06:52:45.341Z,25.13
2023-04-27T06:53:45.322Z,25.56
2023-04-27T06:54:45.380Z,26.01
2023-04-27T06:55:46.920Z,26.39
2023-04-27T06:56:45.313Z,27.96
2023-04-27T06:57:45.306Z,27.59
2023-04-27T06:58:45.310Z,28.48
2023-04-27T06:59:45.286Z,28.98
2023-04-27T07:00:45.303Z,28.21
2023-04-27T07:01:45.288Z,27.71
2023-04-27T07:02:45.436Z,28.93
2023-04-27T07:03:45.390Z,30.52
2023-04-27T07:04:45.347Z,31.29
2023-04-27T07:05:45.327Z,30.72
2023-04-27T07:06:45.245Z,32.04
2023-04-27T07:07:45.611Z,32.81
2023-04-27T07:08:45.300Z,33.31
2023-04-27T07:09:45.230Z,33.54
2023-04-27T07:10:45.214Z,33.79
2023-04-27T07:11:45.211Z,34.32
2023-04-27T07:12:45.213Z,35.76
2023-04-27T07:13:45.538Z,35.76
2023-04-27T07:14:45.211Z,36.91
2023-04-27T07:15:45.249Z,36.89
2023-04-27T07:16:45.195Z,37.28
2023-04-27T07:17:45.273Z,38.05
2023-04-27T07:18:45.482Z,39.56
2023-04-27T07:19:45.203Z,39.70
2023-04-27T07:20:45.189Z,40.13
2023-04-27T07:21:45.240Z,40.50
2023-04-27T07:22:45.187Z,43.90
2023-04-27T07:23:45.161Z,44.61
2023-04-27T07:24:45.135Z,44.01
2023-04-27T07:25:46.095Z,43.49
2023-04-27T07:26:45.165Z,44.57
2023-04-27T07:27:45.137Z,43.36
2023-04-27T07:28:45.189Z,45.59
2023-04-27T07:29:45.135Z,46.79
2023-04-27T07:30:45.186Z,44.34
2023-04-27T07:31:45.124Z,42.88
2023-04-27T07:32:46.056Z,45.89
2023-04-27T07:33:45.145Z,42.22
2023-04-27T07:34:53.653Z,42.80
2023-04-27T07:35:46.502Z,42.63
2023-04-27T07:36:45.129Z,36.14
2023-04-27T07:37:45.222Z,38.75
2023-04-27T07:38:45.510Z,39.39
2023-04-27T07:39:45.094Z,43.03
2023-04-27T07:40:46.066Z,40.37
2023-04-27T07:41:45.112Z,38.02
2023-04-27T07:42:45.067Z,35.51
2023-04-27T07:43:45.034Z,32.43
2023-04-27T07:44:45.049Z,32.42
2023-04-27T07:45:45.181Z,32.27
2023-04-27T07:46:45.135Z,31.02
2023-04-27T07:47:45.220Z,31.27
2023-04-27T07:48:47.025Z,30.81
2023-04-27T07:49:45.211Z,30.24
2023-04-27T07:50:45.504Z,29.96
2023-04-27T07:51:45.185Z,29.34
2023-04-27T07:52:45.236Z,28.84
2023-04-27T07:53:47.257Z,28.86
2023-04-27T07:54:45.289Z,28.69
2023-04-27T07:55:45.514Z,28.09
2023-04-27T07:56:45.395Z,27.85
2023-04-27T07:57:45.296Z,27.10
2023-04-27T07:58:45.350Z,26.37
2023-04-27T07:59:45.410Z,26.51
2023-04-27T08:00:45.382Z,26.13
2023-04-27T08:01:45.415Z,25.60
2023-04-27T08:02:46.289Z,25.47
2023-04-27T08:03:45.755Z,24.75
2023-04-27T08:04:45.567Z,24.81
2023-04-27T08:05:45.600Z,24.64
2023-04-27T08:06:45.904Z,24.35
2023-04-27T08:07:45.845Z,24.35
2023-04-27T08:08:45.429Z,24.28
2023-04-27T08:09:45.498Z,23.85
2023-04-27T08:10:45.491Z,23.82
2023-04-27T08:11:45.525Z,23.18
2023-04-27T08:12:45.529Z,23.47
2023-04-27T08:13:45.579Z,22.52
2023-04-27T08:14:45.592Z,22.64
2023-04-27T08:15:45.649Z,22.58
2023-04-27T08:16:45.681Z,22.60
2023-04-27T08:17:45.687Z,21.95
2023-04-27T08:18:45.715Z,22.37
2023-04-27T08:19:45.732Z,22.21
2023-04-27T08:20:45.770Z,21.53
2023-04-27T08:21:45.930Z,21.60
2023-04-27T08:22:45.820Z,22.14
2023-04-27T08:23:45.862Z,23.14
2023-04-27T08:24:45.850Z,22.20
2023-04-27T08:25:45.986Z,22.25
2023-04-27T08:26:45.898Z,23.25
2023-04-27T08:27:46.014Z,23.29
2023-04-27T08:28:46.039Z,23.36
2023-04-27T08:29:45.942Z,22.27
2023-04-27T08:30:46.005Z,21.74
2023-04-27T08:31:45.997Z,21.70
2023-04-27T08:32:46.123Z,21.53
2023-04-27T08:33:46.012Z,21.34
2023-04-27T08:34:46.020Z,21.34
2023-04-27T08:35:46.583Z,21.10
2023-04-27T08:36:46.065Z,20.86
2023-04-27T08:37:46.067Z,20.85
2023-04-27T08:38:46.636Z,20.68
2023-04-27T08:39:46.105Z,20.16
2023-04-27T08:40:46.143Z,20.22
2023-04-27T08:41:46.237Z,19.82
2023-04-27T08:42:46.148Z,20.62
2023-04-27T08:43:46.166Z,19.33
2023-04-27T08:44:46.218Z,18.24
2023-04-27T08:45:46.235Z,16.01
2023-04-27T08:46:46.327Z,16.62
2023-04-27T08:47:46.254Z,16.10
2023-04-27T08:48:46.306Z,16.39
2023-04-27T08:49:46.253Z,16.42
2023-04-27T08:50:46.284Z,16.41
2023-04-27T08:51:46.289Z,16.42
2023-04-27T08:52:46.314Z,16.43
2023-04-27T08:53:46.555Z,16.21
2023-04-27T08:54:46.357Z,16.87
2023-04-27T08:55:46.364Z,16.84
2023-04-27T08:56:46.418Z,16.87
2023-04-27T08:57:46.429Z,16.85
2023-04-27T08:58:46.416Z,16.87
2023-04-27T08:59:46.489Z,17.04
2023-04-27T09:00:46.531Z,16.84
2023-04-27T09:01:46.537Z,17.08
2023-04-27T09:02:46.623Z,17.00
2023-04-27T09:03:46.841Z,17.19
2023-04-27T09:04:46.610Z,17.26
2023-04-27T09:05:56.486Z,17.28
2023-04-27T09:06:47.563Z,17.30
2023-04-27T09:07:46.497Z,17.35
2023-04-27T09:08:46.533Z,17.19
2023-04-27T09:09:46.525Z,17.47
2023-04-27T09:10:46.493Z,17.45
2023-04-27T09:11:46.501Z,17.33
2023-04-27T09:12:46.525Z,17.21
2023-04-27T09:13:46.475Z,16.98
2023-04-27T09:14:46.465Z,17.20
2023-04-27T09:15:48.574Z,17.30
2023-04-27T09:16:46.630Z,17.57
2023-04-27T09:17:46.473Z,17.27
2023-04-27T09:18:46.451Z,17.09
2023-04-27T09:19:46.439Z,17.05
2023-04-27T09:20:46.417Z,16.95
2023-04-27T09:21:47.743Z,16.94
2023-04-27T09:22:46.421Z,16.81
2023-04-27T09:23:46.405Z,16.81
2023-04-27T09:24:46.402Z,16.98
2023-04-27T09:25:46.395Z,17.06
2023-04-27T09:26:46.372Z,16.88
2023-04-27T09:27:46.384Z,16.78
2023-04-27T09:28:46.382Z,16.73
2023-04-27T09:29:46.378Z,16.72
2023-04-27T09:30:46.377Z,16.75
2023-04-27T09:31:46.430Z,16.88
2023-04-27T09:32:46.442Z,16.58
2023-04-27T09:33:46.398Z,16.64
2023-04-27T09:34:46.433Z,16.56
2023-04-27T09:35:46.373Z,16.48
2023-04-27T09:36:46.462Z,16.56
2023-04-27T09:37:47.385Z,16.72
2023-04-27T09:38:46.381Z,16.43
2023-04-27T09:39:46.374Z,16.10
2023-04-27T09:40:46.356Z,16.22
2023-04-27T09:41:46.354Z,16.24
2023-04-27T09:42:46.358Z,16.28
2023-04-27T09:43:46.351Z,16.03
2023-04-27T09:44:46.360Z,16.17
2023-04-27T09:45:46.378Z,15.87
2023-04-27T09:46:46.375Z,15.95
2023-04-27T09:47:46.453Z,16.14
2023-04-27T09:48:46.442Z,15.96
2023-04-27T09:49:46.468Z,16.09
2023-04-27T09:50:46.507Z,15.79
2023-04-27T09:51:46.503Z,16.14
2023-04-27T09:52:46.527Z,15.41
2023-04-27T09:53:46.547Z,15.84
2023-04-27T09:54:46.594Z,15.84
2023-04-27T09:55:46.613Z,16.04
2023-04-27T09:56:46.650Z,15.42
2023-04-27T09:57:46.698Z,15.70
2023-04-27T09:58:46.752Z,15.65
2023-04-27T09:59:46.759Z,15.62
2023-04-27T10:00:46.872Z,15.61
2023-04-27T10:01:46.923Z,15.70
2023-04-27T10:02:53.253Z,15.65
2023-04-27T10:03:48.026Z,15.68
2023-04-27T10:04:46.952Z,15.72
2023-04-27T10:05:46.895Z,15.52
2023-04-27T10:06:46.894Z,15.66
2023-04-27T10:07:46.918Z,15.74
2023-04-27T10:08:46.871Z,15.65
2023-04-27T10:09:46.878Z,15.53
2023-04-27T10:10:46.841Z,15.50
2023-04-27T10:11:46.895Z,15.54
2023-04-27T10:12:47.006Z,15.56
2023-04-27T10:13:46.976Z,15.44
2023-04-27T10:14:47.047Z,15.25
2023-04-27T10:15:47.092Z,15.49
2023-04-27T10:16:47.263Z,15.26
2023-04-27T10:17:47.243Z,15.13
2023-04-27T10:18:47.254Z,15.37
2023-04-27T10:19:47.293Z,15.16
2023-04-27T10:20:47.339Z,15.29
2023-04-27T10:21:47.428Z,15.18
2023-04-27T10:22:47.442Z,15.14
2023-04-27T10:23:47.502Z,15.10
2023-04-27T10:24:47.556Z,14.93
2023-04-27T10:25:47.569Z,14.89
2023-04-27T10:26:47.619Z,15.19
2023-04-27T10:27:47.669Z,14.80
2023-04-27T10:28:47.740Z,15.12
2023-04-27T10:29:48.075Z,15.15
2023-04-27T10:30:47.846Z,14.85
2023-04-27T10:31:47.859Z,15.02
2023-04-27T10:32:47.918Z,14.95
2023-04-27T10:33:47.960Z,14.69
2023-04-27T10:34:48.089Z,14.85
2023-04-27T10:35:48.005Z,14.71
2023-04-27T10:36:48.080Z,14.72
2023-04-27T10:37:48.098Z,14.51
2023-04-27T10:38:48.172Z,14.71
2023-04-27T10:39:49.853Z,14.12
2023-04-27T10:40:48.221Z,14.57
2023-04-27T10:41:48.570Z,14.58
2023-04-27T10:42:48.286Z,14.55
2023-04-27T10:43:48.318Z,14.34
2023-04-27T10:44:48.368Z,14.13
2023-04-27T10:45:48.442Z,14.18
2023-04-27T10:46:48.399Z,14.33
2023-04-27T10:47:48.524Z,14.27
2023-04-27T10:48:48.484Z,14.26
2023-04-27T10:49:48.520Z,14.18
2023-04-27T10:50:48.537Z,14.07
2023-04-27T10:51:48.595Z,14.08
2023-04-27T10:52:48.589Z,13.99
2023-04-27T10:53:48.604Z,13.98
2023-04-27T10:54:48.654Z,13.35
2023-04-27T10:55:48.654Z,13.59
2023-04-27T10:56:48.750Z,13.72
2023-04-27T10:57:48.723Z,14.11
2023-04-27T10:58:49.604Z,13.77
2023-04-27T10:59:48.789Z,14.05
2023-04-27T11:00:48.814Z,13.52
2023-04-27T11:01:48.862Z,13.39
2023-04-27T11:02:48.926Z,12.91
2023-04-27T11:03:49.015Z,13.49
2023-04-27T11:04:49.085Z,13.03
2023-04-27T11:05:49.021Z,13.52
2023-04-27T11:06:49.022Z,13.54
2023-04-27T11:07:49.010Z,13.52
2023-04-27T11:08:49.037Z,12.38
2023-04-27T11:09:49.070Z,12.46
2023-04-27T11:10:49.230Z,12.83
2023-04-27T11:11:49.108Z,12.80
2023-04-27T11:12:49.178Z,13.05
2023-04-27T11:13:49.171Z,12.76
2023-04-27T11:14:49.212Z,13.22
2023-04-27T11:15:49.270Z,12.31
2023-04-27T11:16:49.347Z,12.61
2023-04-27T11:17:49.509Z,13.31
2023-04-27T11:18:49.339Z,12.83
2023-04-27T11:19:49.403Z,12.89
2023-04-27T11:20:49.424Z,12.40
2023-04-27T11:21:50.088Z,12.91
2023-04-27T11:22:49.487Z,12.81
2023-04-27T11:23:50.105Z,12.79
2023-04-27T11:24:50.090Z,12.29
2023-04-27T11:25:49.622Z,12.57
2023-04-27T11:26:50.123Z,12.41
2023-04-27T11:27:50.594Z,12.69
2023-04-27T11:28:49.692Z,12.04
2023-04-27T11:29:50.140Z,12.46
2023-04-27T11:30:49.788Z,12.08
2023-04-27T11:31:50.114Z,12.67
2023-04-27T11:32:49.859Z,12.10
2023-04-27T11:33:49.858Z,12.18
2023-04-27T11:34:49.898Z,11.83
2023-04-27T11:35:49.912Z,12.36
2023-04-27T11:36:49.962Z,12.45
2023-04-27T11:37:49.982Z,12.19
2023-04-27T11:38:50.139Z,11.70
2023-04-27T11:39:50.062Z,12.22
2023-04-27T11:40:50.073Z,11.67
2023-04-27T11:41:50.166Z,12.18
2023-04-27T11:42:50.117Z,11.34
2023-04-27T11:43:50.132Z,11.65
2023-04-27T11:44:50.153Z,12.35
2023-04-27T11:45:50.209Z,11.62
2023-04-27T11:46:50.322Z,11.99
2023-04-27T11:47:50.280Z,11.67
2023-04-27T11:48:50.269Z,11.86
2023-04-27T11:49:50.303Z,11.09
2023-04-27T11:50:50.369Z,11.64
2023-04-27T11:51:50.362Z,11.81
2023-04-27T11:52:50.425Z,11.49
2023-04-27T11:53:50.435Z,11.74
2023-04-27T11:54:50.519Z,11.60
2023-04-27T11:55:50.467Z,11.72
2023-04-27T11:56:50.502Z,11.88
2023-04-27T11:57:50.537Z,11.61
2023-04-27T11:58:50.556Z,11.63
2023-04-27T11:59:50.585Z,11.33
2023-04-27T12:00:50.662Z,11.50
2023-04-27T12:01:50.661Z,11.22
2023-04-27T12:02:50.844Z,11.03
2023-04-27T12:03:50.985Z,11.22
2023-04-27T12:04:50.919Z,11.35
2023-04-27T12:05:50.874Z,11.09
2023-04-27T12:06:50.808Z,10.92
2023-04-27T12:07:50.853Z,11.20
2023-04-27T12:08:50.841Z,10.71
2023-04-27T12:09:50.904Z,11.23
2023-04-27T12:10:50.907Z,11.18
2023-04-27T12:11:50.925Z,11.03
2023-04-27T12:12:51.039Z,10.74
2023-04-27T12:13:50.989Z,11.10
2023-04-27T12:14:51.063Z,10.61
2023-04-27T12:15:51.082Z,10.77
2023-04-27T12:16:51.255Z,11.09
2023-04-27T12:17:51.200Z,11.02
2023-04-27T12:18:51.198Z,10.77
2023-04-27T12:19:51.247Z,10.83
2023-04-27T12:20:51.296Z,10.62
2023-04-27T12:21:51.316Z,10.76
2023-04-27T12:22:51.426Z,10.66
2023-04-27T12:23:51.420Z,10.85
2023-04-27T12:24:51.449Z,10.66
2023-04-27T12:25:51.516Z,10.48
2023-04-27T12:26:51.563Z,10.52
2023-04-27T12:27:51.610Z,10.43
2023-04-27T12:28:51.722Z,10.41
2023-04-27T12:29:51.766Z,10.35
2023-04-27T12:30:51.821Z,9.92
2023-04-27T12:31:51.911Z,9.86
2023-04-27T12:32:51.894Z,9.57
2023-04-27T12:33:51.934Z,9.95
2023-04-27T12:34:51.981Z,9.08
2023-04-27T12:35:52.003Z,9.08
2023-04-27T12:36:52.046Z,9.02
2023-04-27T12:37:52.088Z,8.71
2023-04-27T12:38:52.137Z,8.60
2023-04-27T12:39:52.290Z,8.19
2023-04-27T12:40:52.267Z,8.02
2023-04-27T12:41:52.317Z,7.94
2023-04-27T12:42:52.396Z,7.79
2023-04-27T12:43:52.459Z,7.65
2023-04-27T12:44:52.482Z,7.35
2023-04-27T12:45:52.582Z,7.64
2023-04-27T12:46:52.661Z,7.50
2023-04-27T12:48:02.546Z,7.61
2023-04-27T12:48:53.707Z,7.62
2023-04-27T12:49:52.639Z,7.68
2023-04-27T12:50:52.631Z,7.94
2023-04-27T12:51:52.642Z,8.32
2023-04-27T12:52:52.634Z,8.73
2023-04-27T12:53:52.619Z,9.27
2023-04-27T12:54:52.601Z,9.58
2023-04-27T12:55:52.588Z,9.61